Time;durP1;ratioP1;P1;durP2;ratioP2;P2;SDS_P1;SDS_P2;PMS_P1;PMS_P2;Temp;Humidity;BMP_temperature;BMP_pressure;BME280_temperature;BME280_humidity;BME280_pressure;Samples;Min_cycle;Max_cycle;Signal;HPM_P1;HPM_P2
2021/10/31 00:01:32;;;;;;;;;;;19.20;89.90;;;;;;5095780;28;19996;-74
2021/10/31 00:03:58;;;;;;;;;;;19.30;88.90;;;;;;5095994;28;19915;-73
2021/10/31 00:06:25;;;;;;;;;;;19.30;88.90;;;;;;5095746;28;19915;-76
2021/10/31 00:08:52;;;;;;;;;;;19.30;88.80;;;;;;5094842;28;20278;-75
2021/10/31 00:11:19;;;;;;;;;;;19.30;88.60;;;;;;5095443;28;19908;-75
2021/10/31 00:13:46;;;;;;;;;;;19.30;88.50;;;;;;5095380;28;19908;-76
2021/10/31 00:16:13;;;;;;;;;;;19.20;89.90;;;;;;5095310;28;19908;-76
2021/10/31 00:18:39;;;;;;;;;;;19.50;90.10;;;;;;5095158;28;19934;-76
2021/10/31 00:21:06;;;;;;;;;;;19.50;90.40;;;;;;5095124;28;19920;-76
2021/10/31 00:23:33;;;;;;;;;;;19.70;89.70;;;;;;5094647;28;20377;-76
2021/10/31 00:26:00;;;;;;;;;;;19.70;90.10;;;;;;5094935;28;20281;-77
2021/10/31 00:28:26;;;;;;;;;;;19.80;90.20;;;;;;5093932;28;20306;-77
2021/10/31 00:30:53;;;;;;;;;;;20.00;90.00;;;;;;5095093;28;19908;-75
2021/10/31 00:33:20;;;;;;;;;;;20.20;88.80;;;;;;5095255;28;19908;-77
2021/10/31 00:35:47;;;;;;;;;;;20.50;87.50;;;;;;5095509;28;20309;-75
2021/10/31 00:38:13;;;;;;;;;;;20.70;87.80;;;;;;5094329;28;19931;-77
2021/10/31 00:40:41;;;;;;;;;;;21.40;86.30;;;;;;5095213;28;19945;-76
2021/10/31 00:43:08;;;;;;;;;;;21.70;86.50;;;;;;5095150;28;19959;-77
2021/10/31 00:45:34;;;;;;;;;;;22.00;85.10;;;;;;5095067;28;19908;-77
2021/10/31 00:48:01;;;;;;;;;;;22.30;81.40;;;;;;5094455;28;20037;-77
2021/10/31 00:50:28;;;;;;;;;;;22.50;81.90;;;;;;5094919;28;20289;-77
2021/10/31 00:52:54;;;;;;;;;;;22.10;81.00;;;;;;5094920;28;19908;-76
2021/10/31 00:55:21;;;;;;;;;;;21.20;83.60;;;;;;5094615;28;19914;-77
2021/10/31 00:57:48;;;;;;;;;;;20.80;84.70;;;;;;5094782;28;19975;-76
2021/10/31 01:00:15;;;;;;;;;;;20.70;85.10;;;;;;5094361;28;20293;-77
2021/10/31 01:02:42;;;;;;;;;;;20.70;86.80;;;;;;5094436;28;19916;-77
2021/10/31 01:05:11;;;;;;;;;;;20.40;87.10;;;;;;5094388;28;19909;-76
2021/10/31 01:07:47;;;;;;;;;;;20.10;87.40;;;;;;5094903;28;19912;-76
2021/10/31 01:10:20;;;;;;;;;;;19.80;87.90;;;;;;5094345;28;19914;-77
2021/10/31 01:12:56;;;;;;;;;;;19.80;86.10;;;;;;5094338;28;20369;-76
2021/10/31 01:15:41;;;;;;;;;;;19.60;88.60;;;;;;5094446;28;19908;-76
2021/10/31 01:18:25;;;;;;;;;;;19.40;89.20;;;;;;5094166;28;19999;-76
2021/10/31 01:21:10;;;;;;;;;;;19.30;89.20;;;;;;5094345;28;19970;-76
2021/10/31 01:23:49;;;;;;;;;;;19.20;89.90;;;;;;5094488;28;19916;-74
2021/10/31 01:26:32;;;;;;;;;;;19.20;88.50;;;;;;5094083;28;19943;-74
2021/10/31 01:29:17;;;;;;;;;;;19.00;88.40;;;;;;5094399;28;20289;-76
2021/10/31 01:32:05;;;;;;;;;;;19.10;90.10;;;;;;5094151;28;20369;-75
2021/10/31 01:34:32;;;;;;;;;;;19.10;90.20;;;;;;5094086;28;19960;-74
2021/10/31 01:36:58;;;;;;;;;;;18.90;90.60;;;;;;5094319;28;20415;-76
2021/10/31 01:39:45;;;;;;;;;;;18.90;90.20;;;;;;5093963;28;19974;-76
2021/10/31 01:42:30;;;;;;;;;;;18.90;90.20;;;;;;5071323;28;20255;-75
2021/10/31 01:45:16;;;;;;;;;;;18.90;89.40;;;;;;5093677;28;19908;-76
2021/10/31 01:47:43;;;;;;;;;;;19.10;90.10;;;;;;5094408;28;19930;-76
2021/10/31 01:50:27;;;;;;;;;;;19.20;90.30;;;;;;5093473;28;20261;-74
2021/10/31 01:53:05;;;;;;;;;;;19.30;89.90;;;;;;5093734;28;19914;-77
2021/10/31 01:55:34;;;;;;;;;;;19.30;88.50;;;;;;5094191;28;20335;-75
2021/10/31 01:58:02;;;;;;;;;;;19.30;89.80;;;;;;5093923;28;20308;-75
2021/10/31 02:00:30;;;;;;;;;;;19.30;88.30;;;;;;5093307;28;19916;-75
2021/10/31 02:03:02;;;;;;;;;;;19.30;90.20;;;;;;5093513;28;19992;-76
2021/10/31 02:05:30;;;;;;;;;;;19.30;89.60;;;;;;5093414;28;19915;-77
2021/10/31 02:08:01;;;;;;;;;;;19.30;90.20;;;;;;5093436;28;20231;-76
2021/10/31 02:10:29;;;;;;;;;;;19.30;90.50;;;;;;5092805;28;20944;-75
2021/10/31 02:12:56;;;;;;;;;;;19.20;90.50;;;;;;5093354;28;20350;-77
2021/10/31 02:15:23;;;;;;;;;;;19.00;90.80;;;;;;5093250;28;19914;-76
2021/10/31 02:17:52;;;;;;;;;;;19.00;90.90;;;;;;5093236;28;20384;-76
2021/10/31 02:20:19;;;;;;;;;;;18.90;91.10;;;;;;5093282;28;20012;-76
2021/10/31 02:22:56;;;;;;;;;;;18.90;91.80;;;;;;5093217;28;20431;-74
2021/10/31 02:25:23;;;;;;;;;;;19.00;91.80;;;;;;5093392;28;20360;-75
2021/10/31 02:27:50;;;;;;;;;;;19.00;91.00;;;;;;5093180;28;19908;-76
2021/10/31 02:30:17;;;;;;;;;;;19.00;90.80;;;;;;5092726;28;19914;-75
2021/10/31 02:32:44;;;;;;;;;;;19.00;91.10;;;;;;5092853;28;20316;-74
2021/10/31 02:35:12;;;;;;;;;;;19.10;91.80;;;;;;5093558;28;20335;-75
2021/10/31 02:37:39;;;;;;;;;;;19.10;91.80;;;;;;5092220;28;19912;-78
2021/10/31 02:40:07;;;;;;;;;;;19.10;91.50;;;;;;5092884;28;19915;-77
2021/10/31 02:42:34;;;;;;;;;;;19.00;91.50;;;;;;5092602;28;20470;-75
2021/10/31 02:45:01;;;;;;;;;;;19.00;91.60;;;;;;5093172;28;19912;-75
2021/10/31 02:47:39;;;;;;;;;;;19.00;90.30;;;;;;5092853;28;19919;-75
2021/10/31 02:50:09;;;;;;;;;;;19.00;91.40;;;;;;5092512;28;19965;-77
2021/10/31 02:52:44;;;;;;;;;;;19.20;91.50;;;;;;5093154;28;19908;-76
2021/10/31 02:55:21;;;;;;;;;;;19.40;90.60;;;;;;5093428;28;19908;-76
2021/10/31 02:57:54;;;;;;;;;;;19.60;91.30;;;;;;5093048;28;19912;-75
2021/10/31 03:00:22;;;;;;;;;;;19.60;90.90;;;;;;5092292;28;19913;-76
2021/10/31 03:02:49;;;;;;;;;;;19.70;90.50;;;;;;5092686;28;19919;-76
2021/10/31 03:05:15;;;;;;;;;;;19.60;91.30;;;;;;5091594;28;19942;-77
2021/10/31 03:07:43;;;;;;;;;;;19.60;91.10;;;;;;5092606;28;20008;-76
2021/10/31 03:10:14;;;;;;;;;;;19.50;91.10;;;;;;5092221;28;20033;-76
2021/10/31 03:12:41;;;;;;;;;;;19.40;91.20;;;;;;5092375;28;19908;-76
2021/10/31 03:15:08;;;;;;;;;;;19.50;91.20;;;;;;5092619;28;20409;-76
2021/10/31 03:17:34;;;;;;;;;;;19.40;91.90;;;;;;5092128;28;19908;-76
2021/10/31 03:20:03;;;;;;;;;;;19.30;91.90;;;;;;5092200;28;19915;-76
2021/10/31 03:22:31;;;;;;;;;;;19.40;91.20;;;;;;5093383;28;19946;-76
2021/10/31 03:24:58;;;;;;;;;;;19.20;91.50;;;;;;5096614;28;20011;-76
2021/10/31 03:27:24;;;;;;;;;;;19.30;91.60;;;;;;5097106;28;19908;-76
2021/10/31 03:29:51;;;;;;;;;;;19.40;91.60;;;;;;5097093;28;19912;-76
2021/10/31 03:32:18;;;;;;;;;;;19.60;91.40;;;;;;5096715;28;20332;-76
2021/10/31 03:34:45;;;;;;;;;;;19.50;91.00;;;;;;5097202;28;19908;-76
2021/10/31 03:37:11;;;;;;;;;;;19.40;91.40;;;;;;5096711;28;20275;-76
2021/10/31 03:39:38;;;;;;;;;;;19.50;90.50;;;;;;5096763;28;19912;-75
2021/10/31 03:42:05;;;;;;;;;;;19.60;90.40;;;;;;5095978;28;19916;-75
2021/10/31 03:44:36;;;;;;;;;;;19.60;90.20;;;;;;5096237;28;20476;-78
2021/10/31 03:47:04;;;;;;;;;;;19.50;90.20;;;;;;5096339;28;19908;-76
2021/10/31 03:49:31;;;;;;;;;;;19.50;89.10;;;;;;5096664;28;19931;-75
2021/10/31 03:51:58;;;;;;;;;;;19.60;90.40;;;;;;5096182;28;19934;-74
2021/10/31 03:54:26;;;;;;;;;;;19.60;90.40;;;;;;5096627;28;19908;-77
2021/10/31 03:56:52;;;;;;;;;;;19.60;90.70;;;;;;5095979;28;19912;-76
2021/10/31 03:59:19;;;;;;;;;;;19.60;90.60;;;;;;5096093;28;19919;-76
2021/10/31 04:01:46;;;;;;;;;;;19.70;89.50;;;;;;5095635;28;19927;-75
2021/10/31 04:04:12;;;;;;;;;;;19.60;89.10;;;;;;5095490;28;19935;-73
2021/10/31 04:06:39;;;;;;;;;;;19.50;90.40;;;;;;5095683;28;19908;-75
2021/10/31 04:09:06;;;;;;;;;;;19.60;90.30;;;;;;5095828;28;19908;-76
2021/10/31 04:11:32;;;;;;;;;;;19.50;88.30;;;;;;5096033;28;20346;-76
2021/10/31 04:13:59;;;;;;;;;;;19.30;87.20;;;;;;5095622;28;19912;-75
2021/10/31 04:16:26;;;;;;;;;;;19.20;89.10;;;;;;5095603;28;19969;-76
2021/10/31 04:18:52;;;;;;;;;;;19.30;87.30;;;;;;5095262;28;19915;-75
2021/10/31 04:21:19;;;;;;;;;;;19.20;88.80;;;;;;5095664;28;19920;-76
2021/10/31 04:23:46;;;;;;;;;;;19.30;90.50;;;;;;5094537;28;19908;-76
2021/10/31 04:26:13;;;;;;;;;;;19.30;90.80;;;;;;5095117;28;19912;-75
2021/10/31 04:28:39;;;;;;;;;;;19.10;91.10;;;;;;5095539;28;20347;-76
2021/10/31 04:31:06;;;;;;;;;;;19.20;90.30;;;;;;5095197;28;19915;-75
2021/10/31 04:33:34;;;;;;;;;;;19.10;90.20;;;;;;5094900;28;20007;-75
2021/10/31 04:36:01;;;;;;;;;;;19.10;91.00;;;;;;5095754;28;19908;-75
2021/10/31 04:38:30;;;;;;;;;;;19.20;91.80;;;;;;5095237;28;19912;-75
2021/10/31 04:40:58;;;;;;;;;;;19.30;91.40;;;;;;5095615;28;19912;-76
2021/10/31 04:43:26;;;;;;;;;;;19.30;91.90;;;;;;5095504;28;19915;-76
2021/10/31 04:45:53;;;;;;;;;;;19.40;92.00;;;;;;5095038;28;19908;-75
2021/10/31 04:48:21;;;;;;;;;;;19.20;91.50;;;;;;5094771;28;19919;-74
2021/10/31 04:50:48;;;;;;;;;;;19.00;91.30;;;;;;5095232;28;19912;-74
2021/10/31 04:53:15;;;;;;;;;;;19.00;92.20;;;;;;5094639;28;19912;-75
2021/10/31 04:55:42;;;;;;;;;;;19.10;91.70;;;;;;5094917;28;19915;-75
2021/10/31 04:58:09;;;;;;;;;;;19.20;90.60;;;;;;5094898;28;19947;-75
2021/10/31 05:00:36;;;;;;;;;;;19.20;91.10;;;;;;5095147;28;19920;-75
2021/10/31 05:03:03;;;;;;;;;;;19.20;91.60;;;;;;5095142;28;20278;-75
2021/10/31 05:05:31;;;;;;;;;;;19.40;91.80;;;;;;5093575;28;20271;-75
2021/10/31 05:07:59;;;;;;;;;;;19.30;92.10;;;;;;5094637;28;20330;-75
2021/10/31 05:10:27;;;;;;;;;;;19.10;91.50;;;;;;5094734;28;19908;-75
2021/10/31 05:12:53;;;;;;;;;;;19.00;92.60;;;;;;5094755;28;19915;-75
2021/10/31 05:15:20;;;;;;;;;;;19.00;92.80;;;;;;5094528;28;19915;-75
2021/10/31 05:17:49;;;;;;;;;;;19.10;92.70;;;;;;5094532;28;20001;-76
2021/10/31 05:20:16;;;;;;;;;;;19.00;93.30;;;;;;5094635;28;19961;-76
2021/10/31 05:22:43;;;;;;;;;;;19.00;93.50;;;;;;5094756;28;19956;-74
2021/10/31 05:25:10;;;;;;;;;;;19.10;93.50;;;;;;5094845;28;19908;-75
2021/10/31 05:27:37;;;;;;;;;;;19.10;93.60;;;;;;5094366;28;20366;-75
2021/10/31 05:30:05;;;;;;;;;;;19.10;92.50;;;;;;5094337;28;19916;-74
2021/10/31 05:32:34;;;;;;;;;;;19.00;93.30;;;;;;5094033;28;19912;-74
2021/10/31 05:35:01;;;;;;;;;;;19.00;93.30;;;;;;5094399;28;19916;-75
2021/10/31 05:37:35;;;;;;;;;;;18.90;92.30;;;;;;5094490;28;19912;-76
2021/10/31 05:40:03;;;;;;;;;;;18.90;92.90;;;;;;5094096;28;19908;-73
2021/10/31 05:42:30;;;;;;;;;;;18.90;93.20;;;;;;5094025;28;20352;-76
2021/10/31 05:44:56;;;;;;;;;;;18.80;93.70;;;;;;5093566;28;19999;-73
2021/10/31 05:47:24;;;;;;;;;;;18.70;94.10;;;;;;5093899;28;20362;-76
2021/10/31 05:49:51;;;;;;;;;;;18.60;94.10;;;;;;5094214;28;19915;-75
2021/10/31 05:52:18;;;;;;;;;;;18.60;94.10;;;;;;5093801;28;19908;-76
2021/10/31 05:54:44;;;;;;;;;;;18.70;94.20;;;;;;5094042;28;20363;-75
2021/10/31 05:57:11;;;;;;;;;;;18.60;94.20;;;;;;5093533;28;19908;-76
2021/10/31 05:59:38;;;;;;;;;;;18.60;93.70;;;;;;5091993;28;19912;-75
2021/10/31 06:02:09;;;;;;;;;;;18.50;93.70;;;;;;5092692;28;19927;-73
2021/10/31 06:04:36;;;;;;;;;;;18.50;93.80;;;;;;5093369;28;19914;-73
2021/10/31 06:07:03;;;;;;;;;;;18.50;94.40;;;;;;5093215;28;19916;-75
2021/10/31 06:09:29;;;;;;;;;;;18.50;94.00;;;;;;5093664;28;19915;-76
2021/10/31 06:11:57;;;;;;;;;;;18.50;93.70;;;;;;5093412;28;19908;-75
2021/10/31 06:14:25;;;;;;;;;;;18.50;94.00;;;;;;5094101;28;19995;-75
2021/10/31 06:16:51;;;;;;;;;;;18.50;94.30;;;;;;5093516;28;20381;-75
2021/10/31 06:19:18;;;;;;;;;;;18.50;94.80;;;;;;5093576;28;19912;-76
2021/10/31 06:21:45;;;;;;;;;;;18.50;95.00;;;;;;5093325;28;19917;-76
2021/10/31 06:24:11;;;;;;;;;;;18.50;95.10;;;;;;5093178;28;19970;-75
2021/10/31 06:26:38;;;;;;;;;;;18.50;95.20;;;;;;5093155;28;20011;-73
2021/10/31 06:29:04;;;;;;;;;;;18.40;94.80;;;;;;5093524;28;19908;-75
2021/10/31 06:31:31;;;;;;;;;;;18.30;95.10;;;;;;5093094;28;20336;-76
2021/10/31 06:33:58;;;;;;;;;;;18.30;95.20;;;;;;5092777;28;20023;-75
2021/10/31 06:36:24;;;;;;;;;;;18.30;95.20;;;;;;5093265;28;19915;-76
2021/10/31 06:38:52;;;;;;;;;;;18.30;95.30;;;;;;5092964;28;19927;-75
2021/10/31 06:41:18;;;;;;;;;;;18.30;95.10;;;;;;5092815;28;19916;-75
2021/10/31 06:43:45;;;;;;;;;;;18.30;95.50;;;;;;5093106;28;19908;-75
2021/10/31 06:46:12;;;;;;;;;;;18.30;95.90;;;;;;5092556;28;19946;-75
2021/10/31 06:48:38;;;;;;;;;;;18.40;95.70;;;;;;5092951;28;19912;-76
2021/10/31 06:51:05;;;;;;;;;;;18.20;95.40;;;;;;5093447;28;19908;-78
2021/10/31 06:53:32;;;;;;;;;;;18.10;96.30;;;;;;5091644;28;19912;-76
2021/10/31 06:55:59;;;;;;;;;;;18.10;95.90;;;;;;5092881;28;19919;-75
2021/10/31 06:58:26;;;;;;;;;;;18.00;95.80;;;;;;5092878;28;19908;-75
2021/10/31 07:00:53;;;;;;;;;;;18.10;95.60;;;;;;5092318;28;19960;-75
2021/10/31 07:03:19;;;;;;;;;;;18.10;96.10;;;;;;5093855;28;19995;-76
2021/10/31 07:05:46;;;;;;;;;;;18.10;95.40;;;;;;5092815;28;19995;-74
2021/10/31 07:08:13;;;;;;;;;;;18.10;95.90;;;;;;5092589;28;19909;-75
2021/10/31 07:10:39;;;;;;;;;;;18.00;96.20;;;;;;5092680;28;19908;-75
2021/10/31 07:13:06;;;;;;;;;;;17.90;96.40;;;;;;5093049;28;19999;-75
2021/10/31 07:15:33;;;;;;;;;;;17.90;96.70;;;;;;5092509;28;19966;-76
2021/10/31 07:17:59;;;;;;;;;;;18.00;96.60;;;;;;5092316;28;19949;-75
2021/10/31 07:20:26;;;;;;;;;;;18.00;96.50;;;;;;5092263;28;20366;-74
2021/10/31 07:22:53;;;;;;;;;;;17.90;96.60;;;;;;5092517;28;20290;-75
2021/10/31 07:25:22;;;;;;;;;;;17.90;96.80;;;;;;5092501;28;19912;-75
2021/10/31 07:27:48;;;;;;;;;;;17.80;96.90;;;;;;5092632;28;19912;-76
2021/10/31 07:30:15;;;;;;;;;;;17.80;96.80;;;;;;5092062;28;19919;-75
2021/10/31 07:32:42;;;;;;;;;;;17.80;96.70;;;;;;5092771;28;19908;-75
2021/10/31 07:35:10;;;;;;;;;;;17.80;96.70;;;;;;5092374;28;19912;-75
2021/10/31 07:37:37;;;;;;;;;;;17.80;96.70;;;;;;5092507;28;19962;-74
2021/10/31 07:40:06;;;;;;;;;;;17.80;96.90;;;;;;5092370;28;19909;-75
2021/10/31 07:42:32;;;;;;;;;;;17.80;96.80;;;;;;5092533;28;20267;-76
2021/10/31 07:44:59;;;;;;;;;;;17.80;96.80;;;;;;5092324;28;19912;-75
2021/10/31 07:47:27;;;;;;;;;;;17.70;96.80;;;;;;5092222;28;19909;-75
2021/10/31 07:49:54;;;;;;;;;;;17.70;96.80;;;;;;5092313;28;20322;-76
2021/10/31 07:52:21;;;;;;;;;;;17.70;97.10;;;;;;5091963;28;19939;-75
2021/10/31 07:54:49;;;;;;;;;;;17.70;96.80;;;;;;5092316;28;19942;-76
2021/10/31 07:57:18;;;;;;;;;;;17.70;96.90;;;;;;5092408;28;19908;-76
2021/10/31 07:59:45;;;;;;;;;;;17.60;96.70;;;;;;5092790;28;20374;-76
2021/10/31 08:02:12;;;;;;;;;;;17.60;97.00;;;;;;5091521;28;19927;-75
2021/10/31 08:04:39;;;;;;;;;;;17.60;97.10;;;;;;5092726;28;19909;-75
2021/10/31 08:07:06;;;;;;;;;;;17.60;97.10;;;;;;5092492;28;20417;-76
2021/10/31 08:09:32;;;;;;;;;;;17.60;96.90;;;;;;5095513;28;19916;-76
2021/10/31 08:11:59;;;;;;;;;;;17.50;96.90;;;;;;5096504;28;19912;-75
2021/10/31 08:14:26;;;;;;;;;;;17.50;96.90;;;;;;5096978;28;19984;-76
2021/10/31 08:16:53;;;;;;;;;;;17.40;96.80;;;;;;5096158;28;19908;-76
2021/10/31 08:19:24;;;;;;;;;;;17.40;96.80;;;;;;5095925;28;20003;-75
2021/10/31 08:21:52;;;;;;;;;;;17.30;97.10;;;;;;5095568;28;19916;-76
2021/10/31 08:24:19;;;;;;;;;;;17.30;97.50;;;;;;5095511;28;20445;-75
2021/10/31 08:26:46;;;;;;;;;;;17.40;97.30;;;;;;5095747;28;19961;-75
2021/10/31 08:29:14;;;;;;;;;;;17.40;97.50;;;;;;5096086;28;19908;-76
2021/10/31 08:31:42;;;;;;;;;;;17.40;97.70;;;;;;5095738;28;19908;-76
2021/10/31 08:34:09;;;;;;;;;;;17.40;97.90;;;;;;5095148;28;20472;-76
2021/10/31 08:36:36;;;;;;;;;;;17.40;98.10;;;;;;5095381;28;19908;-76
2021/10/31 08:39:04;;;;;;;;;;;17.30;98.40;;;;;;5095404;28;20006;-76
2021/10/31 08:41:31;;;;;;;;;;;17.30;98.20;;;;;;5095222;28;20372;-75
2021/10/31 08:43:58;;;;;;;;;;;17.30;98.30;;;;;;5095618;28;20392;-75
2021/10/31 08:46:26;;;;;;;;;;;17.30;98.40;;;;;;5095301;28;19908;-75
2021/10/31 08:48:53;;;;;;;;;;;17.30;98.60;;;;;;5095000;28;19908;-76
2021/10/31 08:51:24;;;;;;;;;;;17.30;98.70;;;;;;5095340;28;20380;-76
2021/10/31 08:53:52;;;;;;;;;;;17.30;98.80;;;;;;5095457;28;19947;-75
2021/10/31 08:56:18;;;;;;;;;;;17.30;99.10;;;;;;5095090;28;20005;-75
2021/10/31 08:58:45;;;;;;;;;;;17.20;99.40;;;;;;5095514;28;20001;-76
2021/10/31 09:01:12;;;;;;;;;;;17.20;99.40;;;;;;5095049;28;20101;-76
2021/10/31 09:03:39;;;;;;;;;;;17.20;99.50;;;;;;5095071;28;19912;-76
2021/10/31 09:06:06;;;;;;;;;;;17.20;99.60;;;;;;5095123;28;20306;-76
2021/10/31 09:08:33;;;;;;;;;;;17.20;99.70;;;;;;5095095;28;20363;-77
2021/10/31 09:11:00;;;;;;;;;;;17.20;99.60;;;;;;5092641;28;19912;-79
2021/10/31 09:13:26;;;;;;;;;;;17.20;99.50;;;;;;5094431;28;19915;-75
2021/10/31 09:15:53;;;;;;;;;;;17.20;99.50;;;;;;5094973;28;19909;-76
2021/10/31 09:18:20;;;;;;;;;;;17.20;99.50;;;;;;5094674;28;19908;-76
2021/10/31 09:20:47;;;;;;;;;;;17.10;99.60;;;;;;5094482;28;19916;-75
2021/10/31 09:23:14;;;;;;;;;;;17.10;99.60;;;;;;5095133;28;19908;-76
2021/10/31 09:25:41;;;;;;;;;;;17.10;99.60;;;;;;5094948;28;19912;-76
2021/10/31 09:28:08;;;;;;;;;;;17.10;99.80;;;;;;5095002;28;19915;-75
2021/10/31 09:30:37;;;;;;;;;;;17.10;99.90;;;;;;5094488;28;20006;-76
2021/10/31 09:33:05;;;;;;;;;;;17.10;99.80;;;;;;5094331;28;20366;-77
2021/10/31 09:35:36;;;;;;;;;;;17.10;99.90;;;;;;5094519;28;20009;-76
2021/10/31 09:38:05;;;;;;;;;;;17.10;99.90;;;;;;5093981;28;19915;-77
2021/10/31 09:40:34;;;;;;;;;;;17.10;99.90;;;;;;5094218;28;20274;-75
2021/10/31 09:43:01;;;;;;;;;;;17.00;99.90;;;;;;5094313;28;19908;-76
2021/10/31 09:45:29;;;;;;;;;;;17.10;99.90;;;;;;5094202;28;20013;-74
2021/10/31 09:48:00;;;;;;;;;;;17.10;99.90;;;;;;5094274;28;20286;-77
2021/10/31 09:50:29;;;;;;;;;;;17.00;99.90;;;;;;5094213;28;19908;-76
2021/10/31 09:52:57;;;;;;;;;;;17.00;99.90;;;;;;5094086;28;19908;-76
2021/10/31 09:55:24;;;;;;;;;;;17.00;99.90;;;;;;5094134;28;20326;-76
2021/10/31 09:57:50;;;;;;;;;;;17.00;99.90;;;;;;5093845;28;19908;-78
2021/10/31 10:00:21;;;;;;;;;;;17.00;99.90;;;;;;5093035;28;19908;-76
2021/10/31 10:03:04;;;;;;;;;;;17.00;99.90;;;;;;5093923;28;19967;-77
2021/10/31 10:05:31;;;;;;;;;;;17.00;99.90;;;;;;5093974;28;19923;-77
2021/10/31 10:08:10;;;;;;;;;;;17.00;99.90;;;;;;5093646;28;19923;-77
2021/10/31 10:10:41;;;;;;;;;;;17.00;99.90;;;;;;5092211;28;20345;-76
2021/10/31 10:13:25;;;;;;;;;;;17.00;99.90;;;;;;5093841;28;19912;-75
2021/10/31 10:15:52;;;;;;;;;;;17.00;99.90;;;;;;5093534;28;19995;-77
2021/10/31 10:18:30;;;;;;;;;;;17.00;99.90;;;;;;5093638;28;19908;-77
2021/10/31 10:21:17;;;;;;;;;;;17.00;99.90;;;;;;5094021;28;20294;-77
2021/10/31 10:23:51;;;;;;;;;;;17.00;99.90;;;;;;5093718;28;19952;-76
2021/10/31 10:26:24;;;;;;;;;;;17.00;99.90;;;;;;5093224;28;20569;-77
2021/10/31 10:28:51;;;;;;;;;;;17.00;99.90;;;;;;5093555;28;19908;-78
2021/10/31 10:31:19;;;;;;;;;;;17.00;99.90;;;;;;5092821;28;20384;-77
2021/10/31 10:33:52;;;;;;;;;;;17.00;99.90;;;;;;5093565;28;19908;-76
2021/10/31 10:36:19;;;;;;;;;;;17.00;99.90;;;;;;5093092;28;19916;-77
2021/10/31 10:39:01;;;;;;;;;;;16.90;99.90;;;;;;5093217;28;20281;-76
2021/10/31 10:41:46;;;;;;;;;;;16.90;99.90;;;;;;5091948;28;19920;-76
2021/10/31 10:44:17;;;;;;;;;;;16.90;99.90;;;;;;5092847;28;19909;-76
2021/10/31 10:46:48;;;;;;;;;;;16.90;99.90;;;;;;5093308;28;19908;-78
2021/10/31 10:49:18;;;;;;;;;;;16.90;99.90;;;;;;5093247;28;19957;-77
2021/10/31 10:52:05;;;;;;;;;;;16.90;99.90;;;;;;5092930;28;19915;-76
2021/10/31 10:54:31;;;;;;;;;;;16.90;99.90;;;;;;5092881;28;19959;-76
2021/10/31 10:57:03;;;;;;;;;;;16.90;99.90;;;;;;5092906;28;19912;-78
2021/10/31 10:59:30;;;;;;;;;;;16.90;99.90;;;;;;5092793;28;19915;-77
2021/10/31 11:02:13;;;;;;;;;;;16.90;99.90;;;;;;5092865;28;19924;-76
2021/10/31 11:04:40;;;;;;;;;;;16.90;99.90;;;;;;5092848;28;20004;-76
2021/10/31 11:07:07;;;;;;;;;;;16.80;99.90;;;;;;5092737;28;19951;-75
2021/10/31 11:09:42;;;;;;;;;;;16.90;99.90;;;;;;5092962;28;19923;-76
2021/10/31 11:12:27;;;;;;;;;;;16.90;99.90;;;;;;5093230;28;19919;-77
2021/10/31 11:14:54;;;;;;;;;;;16.80;99.90;;;;;;5092957;28;19908;-76
2021/10/31 11:17:21;;;;;;;;;;;16.80;99.90;;;;;;5093865;28;19908;-76
2021/10/31 11:19:48;;;;;;;;;;;16.80;99.90;;;;;;5093344;28;19935;-75
2021/10/31 11:22:16;;;;;;;;;;;16.80;99.90;;;;;;5092917;28;20259;-76
2021/10/31 11:24:46;;;;;;;;;;;16.80;99.90;;;;;;5093188;28;20354;-78
2021/10/31 11:27:15;;;;;;;;;;;16.80;99.90;;;;;;5093812;28;19947;-78
2021/10/31 11:29:46;;;;;;;;;;;16.80;99.90;;;;;;5092652;28;19915;-78
2021/10/31 11:32:14;;;;;;;;;;;16.80;99.90;;;;;;5092686;28;19912;-77
2021/10/31 11:34:42;;;;;;;;;;;16.80;99.90;;;;;;5092779;28;20289;-77
2021/10/31 11:37:09;;;;;;;;;;;16.70;99.90;;;;;;5092959;28;19908;-77
2021/10/31 11:39:37;;;;;;;;;;;16.70;99.90;;;;;;5092356;28;19915;-77
2021/10/31 11:42:04;;;;;;;;;;;16.70;99.90;;;;;;5092497;28;20338;-78
2021/10/31 11:44:31;;;;;;;;;;;16.70;99.90;;;;;;5095201;28;19928;-77
2021/10/31 11:46:58;;;;;;;;;;;16.70;99.90;;;;;;5081258;28;19943;-77
2021/10/31 11:49:27;;;;;;;;;;;16.70;99.90;;;;;;5076831;28;19931;-78
2021/10/31 11:51:54;;;;;;;;;;;16.70;99.90;;;;;;5076718;28;20007;-76
2021/10/31 11:54:21;;;;;;;;;;;16.70;99.90;;;;;;5076917;28;19916;-77
2021/10/31 11:56:52;;;;;;;;;;;16.70;99.90;;;;;;5077352;28;19916;-77
2021/10/31 11:59:19;;;;;;;;;;;16.70;99.90;;;;;;5075709;28;19970;-76
2021/10/31 12:01:47;;;;;;;;;;;16.70;99.90;;;;;;5076127;28;20271;-78
2021/10/31 12:04:26;;;;;;;;;;;16.70;99.90;;;;;;5110729;28;20027;-78
2021/10/31 12:06:53;;;;;;;;;;;16.70;99.90;;;;;;5075707;28;19908;-75
2021/10/31 12:09:22;;;;;;;;;;;16.70;99.90;;;;;;5075926;28;19908;-75
2021/10/31 12:11:48;;;;;;;;;;;16.70;99.90;;;;;;5075828;28;19912;-76
2021/10/31 12:14:15;;;;;;;;;;;16.70;99.90;;;;;;5075545;28;19919;-77
2021/10/31 12:16:53;;;;;;;;;;;16.70;99.90;;;;;;5080632;28;20357;-77
2021/10/31 12:19:39;;;;;;;;;;;16.70;99.90;;;;;;5117131;28;19908;-76
2021/10/31 12:22:08;;;;;;;;;;;16.70;99.90;;;;;;5116369;28;20353;-76
2021/10/31 12:24:42;;;;;;;;;;;16.70;99.90;;;;;;5116556;28;19994;-74
2021/10/31 12:27:16;;;;;;;;;;;16.70;99.90;;;;;;5116458;28;19912;-75
2021/10/31 12:29:59;;;;;;;;;;;16.70;99.90;;;;;;5115713;28;20326;-77
2021/10/31 12:32:38;;;;;;;;;;;16.60;99.90;;;;;;5116172;27;19984;-76
2021/10/31 12:35:05;;;;;;;;;;;16.60;99.90;;;;;;5115839;28;20230;-74
2021/10/31 12:37:32;;;;;;;;;;;16.60;99.90;;;;;;5115676;28;19908;-76
2021/10/31 12:40:15;;;;;;;;;;;16.50;99.90;;;;;;5115857;28;20277;-75
2021/10/31 12:42:58;;;;;;;;;;;16.50;99.90;;;;;;5116197;28;19961;-75
2021/10/31 12:45:26;;;;;;;;;;;16.50;99.90;;;;;;5115887;28;19943;-75
2021/10/31 12:47:55;;;;;;;;;;;16.40;99.90;;;;;;5115661;28;19915;-74
2021/10/31 12:50:28;;;;;;;;;;;16.40;99.90;;;;;;5115608;28;19911;-75
2021/10/31 12:52:57;;;;;;;;;;;16.30;99.90;;;;;;5115720;28;19907;-74
2021/10/31 12:55:24;;;;;;;;;;;16.20;99.90;;;;;;5115259;28;20254;-75
2021/10/31 12:58:01;;;;;;;;;;;16.20;99.90;;;;;;5115984;28;19915;-74
2021/10/31 13:00:29;;;;;;;;;;;16.10;99.90;;;;;;5115623;28;19911;-73
2021/10/31 13:02:57;;;;;;;;;;;16.10;99.90;;;;;;5115810;28;19916;-75
2021/10/31 13:05:32;;;;;;;;;;;16.10;99.90;;;;;;5115395;28;19924;-74
2021/10/31 13:07:59;;;;;;;;;;;16.20;99.90;;;;;;5115221;28;19992;-74
2021/10/31 13:10:25;;;;;;;;;;;16.10;99.90;;;;;;5116049;28;19912;-75
2021/10/31 13:12:53;;;;;;;;;;;16.10;99.90;;;;;;5115289;28;19908;-74
2021/10/31 13:15:24;;;;;;;;;;;16.20;99.90;;;;;;5114873;28;19953;-75
2021/10/31 13:17:52;;;;;;;;;;;16.10;99.90;;;;;;5114998;28;19908;-74
2021/10/31 13:20:22;;;;;;;;;;;16.10;99.90;;;;;;5114910;28;19995;-74
2021/10/31 13:22:51;;;;;;;;;;;16.10;99.90;;;;;;5115399;28;19974;-74
2021/10/31 13:25:24;;;;;;;;;;;16.10;99.90;;;;;;5115408;28;19914;-74
2021/10/31 13:27:54;;;;;;;;;;;16.00;99.90;;;;;;5115414;28;19927;-74
2021/10/31 13:30:21;;;;;;;;;;;16.00;99.90;;;;;;5114884;28;19915;-74
2021/10/31 13:32:48;;;;;;;;;;;16.00;99.90;;;;;;5116055;28;19907;-74
2021/10/31 13:35:15;;;;;;;;;;;16.00;99.90;;;;;;5116223;28;19920;-76
2021/10/31 13:40:48;;;;;;;;;;;16.10;99.90;;;;;;5115571;28;19989;-78
2021/10/31 13:43:14;;;;;;;;;;;16.10;99.90;;;;;;5114810;28;19920;-74
2021/10/31 13:45:41;;;;;;;;;;;16.10;99.90;;;;;;5114852;28;20007;-75
2021/10/31 13:48:12;;;;;;;;;;;16.10;99.90;;;;;;5113342;28;19915;-78
2021/10/31 13:50:39;;;;;;;;;;;16.10;99.90;;;;;;5114077;28;20274;-76
2021/10/31 13:53:06;;;;;;;;;;;16.20;99.90;;;;;;5114651;28;20321;-77
2021/10/31 13:55:35;;;;;;;;;;;16.30;99.90;;;;;;5114911;28;19915;-78
2021/10/31 13:58:04;;;;;;;;;;;16.30;99.90;;;;;;5114481;28;19908;-78
2021/10/31 14:00:32;;;;;;;;;;;16.40;99.90;;;;;;5114333;28;20022;-76
2021/10/31 14:02:59;;;;;;;;;;;16.50;99.90;;;;;;5114890;28;19920;-76
2021/10/31 14:05:29;;;;;;;;;;;16.40;99.90;;;;;;5114431;28;20002;-78
2021/10/31 14:08:01;;;;;;;;;;;16.40;99.90;;;;;;5114836;28;20273;-78
2021/10/31 14:10:39;;;;;;;;;;;16.40;99.90;;;;;;5114917;28;20014;-78
2021/10/31 14:13:07;;;;;;;;;;;16.30;99.90;;;;;;5115365;28;19908;-78
2021/10/31 14:15:34;;;;;;;;;;;16.30;99.90;;;;;;5114479;28;19908;-79
2021/10/31 14:18:02;;;;;;;;;;;16.20;99.90;;;;;;5114092;28;20364;-76
2021/10/31 14:20:33;;;;;;;;;;;16.20;99.90;;;;;;5114224;28;19912;-78
2021/10/31 14:23:01;;;;;;;;;;;16.20;99.90;;;;;;5114332;28;19961;-78
2021/10/31 14:25:28;;;;;;;;;;;16.20;99.90;;;;;;5114115;28;20346;-79
2021/10/31 14:28:05;;;;;;;;;;;16.20;99.90;;;;;;5114693;28;20349;-79
2021/10/31 14:30:32;;;;;;;;;;;16.10;99.90;;;;;;5114524;28;19935;-79